createdAt,value
2024-03-05T00:00:28.290Z,32.58
2024-03-05T00:02:56.685Z,29.95
2024-03-05T00:05:25.011Z,27.52
2024-03-05T00:07:54.314Z,25.50
2024-03-05T00:10:23.075Z,27.63
2024-03-05T00:12:51.439Z,26.00
2024-03-05T00:15:21.327Z,25.95
2024-03-05T00:17:49.701Z,29.52
2024-03-05T00:20:20.576Z,29.50
2024-03-05T00:22:49.879Z,29.25
2024-03-05T00:25:18.926Z,27.45
2024-03-05T00:27:47.305Z,23.38
2024-03-05T00:30:16.609Z,25.42
2024-03-05T00:32:46.627Z,28.17
2024-03-05T00:35:15.190Z,25.65
2024-03-05T00:37:43.914Z,27.30
2024-03-05T00:40:14.490Z,32.17
2024-03-05T00:42:42.802Z,25.90
2024-03-05T00:45:13.460Z,26.30
2024-03-05T00:47:42.341Z,29.55
2024-03-05T00:50:14.373Z,31.30
2024-03-05T00:52:42.893Z,31.92
2024-03-05T00:55:10.385Z,25.17
2024-03-05T00:57:38.937Z,35.10
2024-03-05T01:00:08.356Z,31.02
2024-03-05T01:02:37.724Z,26.58
2024-03-05T01:05:10.871Z,31.27
2024-03-05T01:07:40.936Z,22.85
2024-03-05T01:10:10.813Z,24.40
2024-03-05T01:12:39.561Z,17.58
2024-03-05T01:15:08.528Z,17.75
2024-03-05T01:17:36.901Z,19.48
2024-03-05T01:20:05.733Z,21.52
2024-03-05T01:22:34.761Z,23.50
2024-03-05T01:25:04.690Z,20.83
2024-03-05T01:27:32.939Z,21.45
2024-03-05T01:30:01.523Z,22.98
2024-03-05T01:32:30.702Z,19.25
2024-03-05T01:34:59.092Z,27.65
2024-03-05T01:37:27.561Z,29.13
2024-03-05T01:39:55.951Z,25.13
2024-03-05T01:42:25.710Z,24.20
2024-03-05T01:44:54.131Z,29.02
2024-03-05T01:47:22.998Z,24.92
2024-03-05T01:49:51.609Z,27.38
2024-03-05T01:52:20.610Z,25.00
2024-03-05T01:54:50.135Z,30.20
2024-03-05T01:57:19.198Z,29.42
2024-03-05T01:59:48.893Z,27.48
2024-03-05T02:02:17.388Z,26.90
2024-03-05T02:04:47.143Z,27.77
2024-03-05T02:07:15.630Z,30.00
2024-03-05T02:09:44.015Z,27.52
2024-03-05T02:12:12.653Z,26.92
2024-03-05T02:14:41.840Z,30.73
2024-03-05T02:17:13.236Z,29.65
2024-03-05T02:19:48.062Z,29.73
2024-03-05T02:22:18.134Z,27.60
2024-03-05T02:24:46.428Z,31.42
2024-03-05T02:27:23.590Z,28.65
2024-03-05T02:29:56.065Z,27.20
2024-03-05T02:32:24.907Z,27.98
2024-03-05T02:34:55.382Z,25.20
2024-03-05T02:37:25.366Z,25.70
2024-03-05T02:39:53.934Z,29.63
2024-03-05T02:42:22.185Z,29.13
2024-03-05T02:44:50.583Z,29.48
2024-03-05T02:47:19.156Z,28.05
2024-03-05T02:49:47.476Z,17.60
2024-03-05T02:52:16.116Z,17.35
2024-03-05T02:54:46.680Z,15.18
2024-03-05T02:57:15.149Z,8.93
2024-03-05T02:59:43.620Z,12.73
2024-03-05T03:02:12.231Z,7.35
2024-03-05T03:04:40.624Z,13.45
2024-03-05T03:07:09.245Z,15.55
2024-03-05T03:09:37.552Z,15.40
2024-03-05T03:12:06.929Z,11.70
2024-03-05T03:14:35.234Z,15.25
2024-03-05T03:17:03.592Z,10.48
2024-03-05T03:19:33.167Z,16.95
2024-03-05T03:22:01.811Z,11.98
2024-03-05T03:24:30.110Z,14.35
2024-03-05T03:26:58.519Z,14.10
2024-03-05T03:29:28.273Z,16.83
2024-03-05T03:31:57.404Z,14.27
2024-03-05T03:34:25.812Z,12.00
2024-03-05T03:36:55.264Z,15.27
2024-03-05T03:39:26.032Z,12.23
2024-03-05T03:41:56.149Z,12.48
2024-03-05T03:44:24.993Z,13.38
2024-03-05T03:46:54.915Z,16.48
2024-03-05T03:49:25.991Z,8.70
2024-03-05T03:51:55.211Z,11.30
2024-03-05T03:54:25.438Z,11.02
2024-03-05T03:56:54.054Z,8.25
2024-03-05T03:59:22.648Z,8.15
2024-03-05T04:01:52.119Z,13.20
2024-03-05T04:04:22.302Z,7.68
2024-03-05T04:06:50.638Z,9.48
2024-03-05T04:09:19.531Z,8.30
2024-03-05T04:11:48.427Z,8.70
2024-03-05T04:14:18.111Z,9.30
2024-03-05T04:16:46.644Z,7.22
2024-03-05T04:19:15.112Z,9.77
2024-03-05T04:21:45.280Z,7.82
2024-03-05T04:24:14.842Z,5.85
2024-03-05T04:26:44.124Z,6.65
2024-03-05T04:29:18.009Z,7.82
2024-03-05T04:31:56.132Z,5.55
2024-03-05T04:34:24.636Z,6.40
2024-03-05T04:36:56.378Z,7.40
2024-03-05T04:39:26.343Z,10.25
2024-03-05T04:41:54.695Z,8.43
2024-03-05T04:44:25.588Z,4.93
2024-03-05T04:46:54.041Z,6.10
2024-03-05T04:49:22.419Z,4.90
2024-03-05T04:51:51.289Z,5.45
2024-03-05T04:54:22.014Z,4.47
2024-03-05T04:56:50.390Z,4.70
2024-03-05T04:59:18.768Z,5.80
2024-03-05T05:01:47.292Z,5.85
2024-03-05T05:04:15.859Z,4.55
2024-03-05T05:06:44.259Z,4.55
2024-03-05T05:09:12.618Z,3.90
2024-03-05T05:11:42.406Z,5.97
2024-03-05T05:14:12.215Z,2.97
2024-03-05T05:16:40.800Z,6.50
2024-03-05T05:19:12.096Z,4.93
2024-03-05T05:21:43.225Z,9.23
2024-03-05T05:24:11.626Z,4.72
2024-03-05T05:26:43.874Z,4.63
2024-03-05T05:29:17.590Z,5.30
2024-03-05T05:31:52.942Z,5.35
2024-03-05T05:34:21.270Z,4.43
2024-03-05T05:36:49.616Z,7.65
2024-03-05T05:39:18.403Z,8.77
2024-03-05T05:41:48.177Z,9.13
2024-03-05T05:44:16.424Z,7.90
2024-03-05T05:46:46.687Z,7.63
2024-03-05T05:49:20.995Z,8.32
2024-03-05T05:51:49.580Z,8.75
2024-03-05T05:54:20.630Z,7.80
2024-03-05T05:56:52.557Z,4.60
2024-03-05T05:59:20.899Z,5.07
2024-03-05T06:01:49.315Z,9.00
2024-03-05T06:04:17.991Z,5.13
2024-03-05T06:06:46.531Z,10.05
2024-03-05T06:09:16.886Z,9.13
2024-03-05T06:11:45.234Z,5.07
2024-03-05T06:14:14.990Z,5.05
2024-03-05T06:16:43.960Z,6.25
2024-03-05T06:19:12.317Z,6.45
2024-03-05T06:21:40.631Z,4.47
2024-03-05T06:24:09.151Z,3.75
2024-03-05T06:26:38.160Z,10.18
2024-03-05T06:29:07.837Z,6.38
2024-03-05T06:31:38.302Z,3.85
2024-03-05T06:34:10.821Z,8.35
2024-03-05T06:36:39.182Z,18.40
2024-03-05T06:39:19.300Z,10.80
2024-03-05T06:41:49.848Z,15.52
2024-03-05T06:44:23.051Z,10.95
2024-03-05T06:46:52.884Z,4.47
2024-03-05T06:49:28.336Z,3.60
2024-03-05T06:52:17.089Z,4.55
2024-03-05T06:55:11.122Z,4.38
2024-03-05T06:57:39.485Z,3.45
2024-03-05T07:00:16.736Z,3.80
2024-03-05T07:02:46.799Z,4.50
2024-03-05T07:05:15.191Z,5.95
2024-03-05T07:07:43.841Z,2.70
2024-03-05T07:10:32.557Z,3.38
2024-03-05T07:13:19.395Z,2.65
2024-03-05T07:16:10.414Z,2.05
2024-03-05T07:19:02.398Z,4.30
2024-03-05T07:21:51.603Z,4.95
2024-03-05T07:24:40.189Z,4.53
2024-03-05T07:27:29.784Z,4.43
2024-03-05T07:30:21.181Z,2.90
2024-03-05T07:33:10.504Z,3.65
2024-03-05T07:36:00.592Z,4.45
2024-03-05T07:38:49.326Z,3.50
2024-03-05T07:41:37.974Z,3.35
2024-03-05T07:44:26.593Z,2.55
2024-03-05T07:47:15.228Z,8.20
2024-03-05T07:50:04.075Z,6.65
2024-03-05T07:52:55.171Z,5.40
2024-03-05T07:55:46.980Z,4.03
2024-03-05T07:58:36.422Z,7.78
2024-03-05T08:01:25.642Z,4.43
2024-03-05T08:04:14.334Z,12.30
2024-03-05T08:07:02.997Z,6.93
2024-03-05T08:09:53.029Z,16.75
2024-03-05T08:12:43.541Z,9.60
2024-03-05T08:15:32.141Z,4.68
2024-03-05T08:18:20.817Z,3.25
2024-03-05T08:21:09.461Z,3.83
2024-03-05T08:23:58.105Z,6.57
2024-03-05T08:26:48.753Z,6.28
2024-03-05T08:29:40.592Z,5.25
2024-03-05T08:32:30.773Z,7.57
2024-03-05T08:35:19.500Z,5.13
2024-03-05T08:38:10.402Z,7.88
2024-03-05T08:41:00.165Z,5.85
2024-03-05T08:43:50.446Z,7.43
2024-03-05T08:46:39.106Z,7.55
2024-03-05T08:49:27.858Z,7.75
2024-03-05T08:52:17.078Z,7.15
2024-03-05T08:55:09.316Z,7.22
2024-03-05T08:57:58.723Z,7.20
2024-03-05T09:00:48.753Z,8.30
2024-03-05T09:03:38.869Z,9.68
2024-03-05T09:06:28.236Z,12.50
2024-03-05T09:09:17.238Z,4.03
2024-03-05T09:12:06.404Z,9.77
2024-03-05T09:14:55.042Z,11.68
2024-03-05T09:17:45.187Z,8.63
2024-03-05T09:20:33.922Z,8.55
2024-03-05T09:23:22.517Z,9.73
2024-03-05T09:26:11.542Z,10.13
2024-03-05T09:29:00.245Z,8.13
2024-03-05T09:31:48.955Z,8.85
2024-03-05T09:34:40.247Z,10.07
2024-03-05T09:37:29.539Z,10.88
2024-03-05T09:40:19.880Z,12.32
2024-03-05T09:43:09.567Z,11.75
2024-03-05T09:46:06.069Z,12.32
2024-03-05T09:48:55.513Z,7.15
2024-03-05T09:51:49.108Z,10.20
2024-03-05T09:54:37.843Z,11.30
2024-03-05T09:57:29.798Z,9.98
2024-03-05T10:00:20.187Z,11.90
2024-03-05T10:03:10.298Z,10.15
2024-03-05T10:05:59.413Z,12.48
2024-03-05T10:08:49.562Z,13.88
2024-03-05T10:11:38.806Z,11.23
2024-03-05T10:14:27.535Z,14.75
2024-03-05T10:17:16.206Z,14.35
2024-03-05T10:20:11.098Z,19.35
2024-03-05T10:23:01.311Z,19.40
2024-03-05T10:25:52.090Z,13.10
2024-03-05T10:28:41.328Z,12.95
2024-03-05T10:31:31.039Z,12.82
2024-03-05T10:34:20.183Z,12.48
2024-03-05T10:37:09.163Z,15.45
2024-03-05T10:39:58.217Z,14.00
2024-03-05T10:42:48.745Z,16.17
2024-03-05T10:45:41.653Z,15.70
2024-03-05T10:48:31.526Z,20.02
2024-03-05T10:51:23.373Z,12.38
2024-03-05T10:54:12.085Z,16.27
2024-03-05T10:57:00.780Z,16.38
2024-03-05T10:59:54.223Z,13.68
2024-03-05T11:02:43.133Z,15.13
2024-03-05T11:05:41.157Z,17.40
2024-03-05T11:08:30.338Z,11.48
2024-03-05T11:11:21.117Z,13.13
2024-03-05T11:14:11.551Z,15.07
2024-03-05T11:17:10.806Z,13.80
2024-03-05T11:20:01.335Z,13.65
2024-03-05T11:22:54.180Z,13.63
2024-03-05T11:25:47.924Z,15.48
2024-03-05T11:28:37.680Z,10.00
2024-03-05T11:31:30.001Z,12.85
2024-03-05T11:34:21.209Z,12.73
2024-03-05T11:37:13.956Z,10.80
2024-03-05T11:40:11.660Z,12.13
2024-03-05T11:43:01.068Z,9.95
2024-03-05T11:45:50.901Z,9.38
2024-03-05T11:48:39.728Z,13.70
2024-03-05T11:51:31.348Z,11.30
2024-03-05T11:54:24.874Z,12.63
2024-03-05T11:57:15.594Z,10.13
2024-03-05T12:00:15.851Z,9.43
2024-03-05T12:03:05.603Z,8.27
2024-03-05T12:05:55.309Z,11.05
2024-03-05T12:08:45.775Z,13.80
2024-03-05T12:11:36.320Z,12.32
2024-03-05T12:14:25.065Z,17.23
2024-03-05T12:17:15.318Z,17.17
2024-03-05T12:20:08.886Z,13.88
2024-03-05T12:22:57.766Z,11.60
2024-03-05T12:25:48.265Z,11.88
2024-03-05T12:28:38.290Z,14.55
2024-03-05T12:31:27.323Z,14.68
2024-03-05T12:34:17.450Z,10.02
2024-03-05T12:37:09.580Z,9.65
2024-03-05T12:40:06.204Z,10.15
2024-03-05T12:43:07.665Z,11.88
2024-03-05T12:46:01.492Z,12.35
2024-03-05T12:48:50.393Z,9.25
2024-03-05T12:51:39.754Z,12.98
2024-03-05T12:54:28.510Z,10.07
2024-03-05T12:57:25.959Z,9.65
2024-03-05T13:00:16.958Z,12.27
2024-03-05T13:03:06.544Z,10.52
2024-03-05T13:05:55.298Z,10.93
2024-03-05T13:08:48.676Z,14.85
2024-03-05T13:11:37.600Z,10.32
2024-03-05T13:14:27.133Z,15.35
2024-03-05T13:17:17.536Z,15.45
2024-03-05T13:20:43.391Z,14.13
2024-03-05T13:23:32.053Z,7.70
2024-03-05T13:26:20.805Z,8.82
2024-03-05T13:29:09.907Z,11.35
2024-03-05T13:31:38.615Z,11.23
2024-03-05T13:34:10.149Z,12.43
2024-03-05T13:36:39.645Z,12.50
2024-03-05T13:39:10.793Z,14.07
2024-03-05T13:41:40.091Z,6.97
2024-03-05T13:44:08.847Z,12.52
2024-03-05T13:46:39.125Z,13.77
2024-03-05T13:49:10.567Z,11.38
2024-03-05T13:51:39.145Z,15.35
2024-03-05T13:54:07.708Z,14.48
2024-03-05T13:56:36.081Z,17.00
2024-03-05T13:59:05.757Z,11.48
2024-03-05T14:01:34.488Z,12.70
2024-03-05T14:04:03.579Z,9.73
2024-03-05T14:06:33.583Z,11.20
2024-03-05T14:09:02.252Z,13.00
2024-03-05T14:11:30.666Z,18.73
2024-03-05T14:13:59.868Z,8.73
2024-03-05T14:16:28.665Z,12.85
2024-03-05T14:18:59.028Z,7.95
2024-03-05T14:21:31.589Z,11.70
2024-03-05T14:24:01.755Z,12.65
2024-03-05T14:26:30.101Z,15.20
2024-03-05T14:28:59.219Z,12.68
2024-03-05T14:31:27.779Z,14.48
2024-03-05T14:33:56.438Z,11.27
2024-03-05T14:36:25.875Z,8.15
2024-03-05T14:38:54.387Z,12.57
2024-03-05T14:41:24.688Z,13.13
2024-03-05T14:43:53.392Z,11.60
2024-03-05T14:46:22.026Z,13.55
2024-03-05T14:48:50.540Z,14.88
2024-03-05T14:51:18.890Z,23.67
2024-03-05T14:53:47.884Z,13.07
2024-03-05T14:56:16.527Z,9.68
2024-03-05T14:58:46.339Z,10.90
2024-03-05T15:01:15.058Z,9.45
2024-03-05T15:03:43.455Z,12.52
2024-03-05T15:06:12.717Z,15.77
2024-03-05T15:08:41.109Z,24.80
2024-03-05T15:11:09.698Z,11.95
2024-03-05T15:13:38.309Z,15.63
2024-03-05T15:16:11.590Z,9.82
2024-03-05T15:18:40.493Z,11.63
2024-03-05T15:21:15.192Z,15.30
2024-03-05T15:23:44.041Z,17.85
2024-03-05T15:26:12.771Z,15.30
2024-03-05T15:28:42.058Z,14.25
2024-03-05T15:31:13.032Z,19.42
2024-03-05T15:33:41.705Z,20.08
2024-03-05T15:36:11.450Z,18.23
2024-03-05T15:38:39.950Z,11.80
2024-03-05T15:41:10.748Z,13.20
2024-03-05T15:43:39.515Z,14.32
2024-03-05T15:46:07.952Z,19.95
2024-03-05T15:48:38.097Z,21.75
2024-03-05T15:51:07.293Z,14.18
2024-03-05T15:53:35.691Z,13.63
2024-03-05T15:56:13.574Z,26.67
2024-03-05T15:58:59.897Z,19.85
2024-03-05T16:01:28.501Z,20.83
2024-03-05T16:04:30.011Z,27.40
2024-03-05T16:06:59.995Z,24.20
2024-03-05T16:09:28.582Z,18.27
2024-03-05T16:11:57.156Z,19.73
2024-03-05T16:14:25.951Z,23.15
2024-03-05T16:16:54.594Z,19.63
2024-03-05T16:19:24.395Z,19.02
2024-03-05T16:21:55.264Z,22.30
2024-03-05T16:24:23.644Z,31.20
2024-03-05T16:26:52.001Z,31.65
2024-03-05T16:29:20.596Z,19.55
2024-03-05T16:31:48.966Z,19.45
2024-03-05T16:34:19.633Z,17.73
2024-03-05T16:36:49.873Z,17.63
2024-03-05T16:39:20.701Z,18.90
2024-03-05T16:41:49.128Z,23.40
2024-03-05T16:44:17.970Z,19.98
2024-03-05T16:46:47.559Z,20.55
2024-03-05T16:49:16.914Z,22.73
2024-03-05T16:51:45.340Z,21.25
2024-03-05T16:54:15.806Z,20.42
2024-03-05T16:56:45.063Z,20.73
2024-03-05T16:59:14.121Z,13.27
2024-03-05T17:01:42.625Z,17.17
2024-03-05T17:04:15.213Z,16.13
2024-03-05T17:06:44.405Z,15.77
2024-03-05T17:09:15.800Z,16.02
2024-03-05T17:11:45.766Z,20.40
2024-03-05T17:14:14.223Z,21.27
2024-03-05T17:16:46.165Z,19.75
2024-03-05T17:19:14.664Z,20.25
2024-03-05T17:21:43.053Z,24.05
2024-03-05T17:24:11.673Z,25.75
2024-03-05T17:26:42.088Z,30.10
2024-03-05T17:29:12.343Z,27.55
2024-03-05T17:31:40.832Z,23.63
2024-03-05T17:34:09.694Z,24.05
2024-03-05T17:36:38.402Z,18.58
2024-03-05T17:39:11.336Z,22.70
2024-03-05T17:41:41.137Z,19.20
2024-03-05T17:44:10.309Z,22.13
2024-03-05T17:46:39.673Z,16.58
2024-03-05T17:49:08.536Z,17.73
2024-03-05T17:51:37.705Z,29.58
2024-03-05T17:54:07.056Z,21.00
2024-03-05T17:56:35.510Z,19.63
2024-03-05T17:59:05.972Z,19.77
2024-03-05T18:01:36.381Z,22.40
2024-03-05T18:04:05.870Z,23.63
2024-03-05T18:06:34.165Z,19.98
2024-03-05T18:09:02.437Z,19.30
2024-03-05T18:11:30.924Z,20.45
2024-03-05T18:14:01.017Z,20.13
2024-03-05T18:16:30.945Z,16.55
2024-03-05T18:18:59.276Z,19.48
2024-03-05T18:21:27.692Z,20.48
2024-03-05T18:23:57.978Z,20.50
2024-03-05T18:26:27.707Z,19.85
2024-03-05T18:28:56.137Z,17.50
2024-03-05T18:31:31.001Z,20.38
2024-03-05T18:34:00.960Z,20.30
2024-03-05T18:36:29.679Z,18.85
2024-03-05T18:38:58.810Z,17.67
2024-03-05T18:41:27.326Z,18.40
2024-03-05T18:43:55.724Z,14.77
2024-03-05T18:46:25.851Z,18.92
2024-03-05T18:48:54.324Z,16.45
2024-03-05T18:51:24.018Z,15.70
2024-03-05T18:53:52.833Z,12.80
2024-03-05T18:56:21.262Z,15.05
2024-03-05T18:58:49.812Z,16.77
2024-03-05T19:01:18.894Z,17.58
2024-03-05T19:03:47.402Z,12.40
2024-03-05T19:06:19.094Z,12.88
2024-03-05T19:08:49.141Z,11.45
2024-03-05T19:11:17.761Z,16.33
2024-03-05T19:13:46.568Z,17.88
2024-03-05T19:16:15.342Z,20.08
2024-03-05T19:18:46.165Z,18.77
2024-03-05T19:21:16.308Z,18.10
2024-03-05T19:23:47.013Z,16.92
2024-03-05T19:26:17.215Z,15.07
2024-03-05T19:28:46.047Z,21.25
2024-03-05T19:31:14.800Z,14.88
2024-03-05T19:33:43.402Z,19.23
2024-03-05T19:36:13.638Z,21.23
2024-03-05T19:38:44.209Z,17.38
2024-03-05T19:41:13.031Z,16.33
2024-03-05T19:43:42.827Z,18.77
2024-03-05T19:46:11.481Z,19.35
2024-03-05T19:48:40.087Z,21.50
2024-03-05T19:51:11.518Z,23.23
2024-03-05T19:53:40.012Z,20.98
2024-03-05T19:56:10.369Z,31.50
2024-03-05T19:58:40.774Z,32.80
2024-03-05T20:01:11.825Z,22.90
2024-03-05T20:03:41.147Z,24.55
2024-03-05T20:06:10.557Z,22.83
2024-03-05T20:08:39.317Z,21.20
2024-03-05T20:11:12.355Z,20.98
2024-03-05T20:13:41.382Z,23.33
2024-03-05T20:16:11.442Z,22.73
2024-03-05T20:18:39.814Z,15.65
2024-03-05T20:21:09.818Z,19.27
2024-03-05T20:23:38.762Z,28.00
2024-03-05T20:26:09.173Z,31.42
2024-03-05T20:28:38.182Z,20.52
2024-03-05T20:31:08.717Z,21.35
2024-03-05T20:33:40.171Z,36.78
2024-03-05T20:36:10.137Z,24.70
2024-03-05T20:38:42.104Z,31.08
2024-03-05T20:41:13.872Z,34.15
2024-03-05T20:43:42.919Z,34.42
2024-03-05T20:46:12.124Z,17.20
2024-03-05T20:48:41.887Z,21.33
2024-03-05T20:51:10.229Z,20.00
2024-03-05T20:53:41.486Z,19.92
2024-03-05T20:56:10.376Z,19.65
2024-03-05T20:58:39.645Z,23.77
2024-03-05T21:01:09.568Z,22.73
2024-03-05T21:03:38.177Z,15.95
2024-03-05T21:06:08.424Z,14.75
2024-03-05T21:08:36.838Z,16.55
2024-03-05T21:11:05.755Z,13.68
2024-03-05T21:13:42.388Z,18.25
2024-03-05T21:16:13.364Z,28.38
2024-03-05T21:18:42.247Z,18.33
2024-03-05T21:21:15.029Z,14.80
2024-03-05T21:23:43.703Z,13.05
2024-03-05T21:26:27.426Z,14.90
2024-03-05T21:29:02.748Z,12.82
2024-03-05T21:31:35.925Z,14.02
2024-03-05T21:34:05.531Z,15.50
2024-03-05T21:36:37.325Z,10.10
2024-03-05T21:39:05.707Z,13.88
2024-03-05T21:41:34.249Z,12.75
2024-03-05T21:44:02.560Z,16.40
2024-03-05T21:46:31.235Z,14.50
2024-03-05T21:49:00.380Z,14.45
2024-03-05T21:51:31.044Z,13.88
2024-03-05T21:54:00.810Z,13.02
2024-03-05T21:56:29.292Z,12.45
2024-03-05T21:58:57.747Z,15.88
2024-03-05T22:01:26.024Z,11.38
2024-03-05T22:03:54.368Z,11.38
2024-03-05T22:06:24.885Z,14.27
2024-03-05T22:08:57.575Z,13.60
2024-03-05T22:11:28.774Z,25.10
2024-03-05T22:13:58.036Z,23.33
2024-03-05T22:16:26.485Z,17.88
2024-03-05T22:18:55.380Z,15.90
2024-03-05T22:21:23.778Z,27.75
2024-03-05T22:23:52.190Z,15.00
2024-03-05T22:26:20.631Z,12.98
2024-03-05T22:28:50.372Z,12.05
2024-03-05T22:31:18.865Z,13.25
2024-03-05T22:33:47.382Z,13.32
2024-03-05T22:36:15.911Z,14.48
2024-03-05T22:38:44.533Z,21.88
2024-03-05T22:41:13.189Z,15.05
2024-03-05T22:43:41.822Z,22.73
2024-03-05T22:46:11.917Z,20.90
2024-03-05T22:48:40.910Z,13.75
2024-03-05T22:51:10.552Z,15.43
2024-03-05T22:53:39.211Z,15.18
2024-03-05T22:56:09.465Z,13.73
2024-03-05T22:58:39.024Z,14.75
2024-03-05T23:01:07.900Z,15.57
2024-03-05T23:03:37.842Z,12.05
2024-03-05T23:06:15.191Z,11.50
2024-03-05T23:08:46.796Z,12.98
2024-03-05T23:11:16.127Z,17.15
2024-03-05T23:13:44.685Z,15.57
2024-03-05T23:16:14.528Z,17.92
2024-03-05T23:18:44.465Z,15.35
2024-03-05T23:21:12.987Z,20.48
2024-03-05T23:23:45.426Z,15.85
2024-03-05T23:26:13.903Z,16.98
2024-03-05T23:28:42.388Z,10.20
2024-03-05T23:31:11.229Z,22.33
2024-03-05T23:33:39.824Z,15.25
2024-03-05T23:36:10.241Z,14.70
2024-03-05T23:38:38.811Z,13.35
2024-03-05T23:41:16.618Z,17.77
2024-03-05T23:43:49.677Z,15.07
2024-03-05T23:46:18.185Z,14.23
2024-03-05T23:48:46.669Z,12.23
2024-03-05T23:51:16.953Z,16.13
2024-03-05T23:53:45.408Z,13.02
2024-03-05T23:56:15.069Z,19.10
2024-03-05T23:58:44.423Z,13.63
